Metar Aviation Weather Data KORD Chicago O'hare International

34°F Temp
19°F Dewpoint
56% Humidity
Temperature
7 MPH
11 KM/H
6 KTS
100°
Due East

Wind Speed
Mostly Scattered
Clouds
Pressure 1033 (hPa) - 30.47 (in)
Visibility 10.0 (mi) - 16 (km)

Current Conditions
KORD
Chicago O'hare International
Metar :KORD 192151Z 10006KT 10SM SCT034 BKN250 01/M07 A3047 RMK AO2 SLP330 T00061072
Tue 19th February 16:51 pm

Chicago O'hare International
  Metar Aviation API Data Provided by https://www.checkwx.com/ PHP scripts by weather34.com ©2019